createdAt,value
2022-08-23T00:02:08.223Z,0.76
2022-08-23T00:05:07.604Z,0.75
2022-08-23T00:07:29.775Z,0.57
2022-08-23T00:09:56.206Z,0.63
2022-08-23T00:12:24.926Z,0.72
2022-08-23T00:14:51.274Z,0.71
2022-08-23T00:17:33.278Z,0.65
2022-08-23T00:20:00.961Z,0.76
2022-08-23T00:22:27.319Z,0.69
2022-08-23T00:24:53.662Z,0.76
2022-08-23T00:27:20.081Z,0.76
2022-08-23T00:29:46.436Z,0.68
2022-08-23T00:32:12.786Z,0.77
2022-08-23T00:34:39.185Z,0.77
2022-08-23T00:37:05.527Z,0.72
2022-08-23T00:39:31.872Z,0.71
2022-08-23T00:41:58.217Z,0.71
2022-08-23T00:44:24.590Z,0.81
2022-08-23T00:46:50.960Z,0.72
2022-08-23T00:49:17.330Z,0.75
2022-08-23T00:51:52.611Z,0.66
2022-08-23T00:54:19.692Z,0.81
2022-08-23T00:56:46.053Z,0.70
2022-08-23T00:59:12.401Z,0.72
2022-08-23T01:01:38.850Z,0.73
2022-08-23T01:04:05.346Z,0.76
2022-08-23T01:06:31.707Z,0.71
2022-08-23T01:08:58.066Z,0.75
2022-08-23T01:11:24.423Z,0.70
2022-08-23T01:13:50.772Z,0.69
2022-08-23T01:16:17.136Z,0.64
2022-08-23T01:18:43.482Z,0.68
2022-08-23T01:21:10.451Z,0.65
2022-08-23T01:23:37.082Z,0.85
2022-08-23T01:26:03.430Z,0.81
2022-08-23T01:28:29.779Z,0.74
2022-08-23T01:30:56.125Z,0.63
2022-08-23T01:33:22.498Z,0.81
2022-08-23T01:35:48.906Z,0.76
2022-08-23T01:38:15.257Z,0.78
2022-08-23T01:40:41.601Z,0.82
2022-08-23T01:43:07.956Z,0.85
2022-08-23T01:45:34.315Z,0.76
2022-08-23T01:48:00.788Z,0.68
2022-08-23T01:50:27.355Z,0.91
2022-08-23T01:52:53.758Z,0.81
2022-08-23T01:55:20.117Z,0.81
2022-08-23T01:57:48.494Z,0.85
2022-08-23T02:00:16.083Z,0.80
2022-08-23T02:02:42.437Z,0.70
2022-08-23T02:05:08.776Z,0.73
2022-08-23T02:07:35.222Z,0.75
2022-08-23T02:10:01.557Z,0.75
2022-08-23T02:12:29.174Z,0.84
2022-08-23T02:14:55.533Z,0.85
2022-08-23T02:17:21.894Z,0.74
2022-08-23T02:19:48.258Z,0.76
2022-08-23T02:22:14.609Z,0.81
2022-08-23T02:24:40.987Z,0.74
2022-08-23T02:27:07.328Z,0.76
2022-08-23T02:29:33.691Z,0.75
2022-08-23T02:32:05.662Z,0.87
2022-08-23T02:34:32.013Z,0.74
2022-08-23T02:36:58.363Z,0.73
2022-08-23T02:39:24.731Z,0.71
2022-08-23T02:41:51.082Z,0.71
2022-08-23T02:44:17.423Z,0.69
2022-08-23T02:46:43.777Z,0.73
2022-08-23T02:49:10.179Z,0.83
2022-08-23T02:51:36.542Z,0.77
2022-08-23T02:54:02.903Z,0.77
2022-08-23T02:56:29.241Z,0.96
2022-08-23T02:58:55.594Z,0.82
2022-08-23T03:01:21.937Z,0.74
2022-08-23T03:03:48.342Z,0.78
2022-08-23T03:06:25.524Z,0.75
2022-08-23T03:08:52.643Z,0.70
2022-08-23T03:11:18.993Z,0.76
2022-08-23T03:13:45.355Z,0.80
2022-08-23T03:16:11.703Z,0.68
2022-08-23T03:18:38.057Z,0.82
2022-08-23T03:21:04.414Z,0.93
2022-08-23T03:23:30.771Z,0.81
2022-08-23T03:25:57.123Z,0.90
2022-08-23T03:28:23.473Z,0.83
2022-08-23T03:30:49.820Z,0.76
2022-08-23T03:33:16.188Z,0.82
2022-08-23T03:35:42.537Z,0.90
2022-08-23T03:38:08.931Z,0.86
2022-08-23T03:40:35.273Z,0.91
2022-08-23T03:43:01.629Z,0.80
2022-08-23T03:45:27.990Z,0.92
2022-08-23T03:47:54.334Z,0.93
2022-08-23T03:50:20.699Z,0.92
2022-08-23T03:52:47.051Z,0.82
2022-08-23T03:55:13.390Z,0.83
2022-08-23T03:57:39.768Z,0.93
2022-08-23T04:00:06.145Z,0.86
2022-08-23T04:02:32.492Z,0.87
2022-08-23T04:04:58.837Z,0.92
2022-08-23T04:07:25.186Z,0.83
2022-08-23T04:09:54.955Z,0.92
2022-08-23T04:12:21.789Z,0.82
2022-08-23T04:14:48.152Z,0.84
2022-08-23T04:17:14.500Z,0.85
2022-08-23T04:19:40.830Z,0.76
2022-08-23T04:22:07.868Z,0.85
2022-08-23T04:24:34.249Z,0.76
2022-08-23T04:27:00.612Z,0.96
2022-08-23T04:29:33.684Z,0.90
2022-08-23T04:32:00.899Z,0.92
2022-08-23T04:34:28.708Z,0.89
2022-08-23T04:36:55.517Z,1.07
2022-08-23T04:39:21.915Z,0.91
2022-08-23T04:41:48.268Z,0.91
2022-08-23T04:44:14.622Z,0.95
2022-08-23T04:46:40.968Z,0.84
2022-08-23T04:49:07.318Z,0.95
2022-08-23T04:51:33.690Z,0.89
2022-08-23T04:54:00.055Z,1.01
2022-08-23T04:56:26.419Z,0.87
2022-08-23T04:58:52.758Z,0.95
2022-08-23T05:01:19.139Z,0.99
2022-08-23T05:03:45.524Z,1.01
2022-08-23T05:06:11.867Z,0.82
2022-08-23T05:08:38.267Z,0.96
2022-08-23T05:11:04.621Z,0.91
2022-08-23T05:13:30.972Z,0.95
2022-08-23T05:15:59.142Z,0.99
2022-08-23T05:18:25.495Z,1.00
2022-08-23T05:20:52.170Z,0.94
2022-08-23T05:23:18.547Z,1.02
2022-08-23T05:25:44.882Z,0.92
2022-08-23T05:28:11.252Z,1.00
2022-08-23T05:30:39.882Z,1.00
2022-08-23T05:33:06.862Z,0.86
2022-08-23T05:35:33.371Z,0.83
2022-08-23T05:37:59.818Z,0.95
2022-08-23T05:40:26.320Z,0.95
2022-08-23T05:42:52.674Z,1.00
2022-08-23T05:45:21.957Z,0.98
2022-08-23T05:47:49.790Z,0.92
2022-08-23T05:50:16.448Z,0.94
2022-08-23T05:52:42.793Z,1.08
2022-08-23T05:55:09.152Z,0.90
2022-08-23T05:57:35.600Z,0.94
2022-08-23T06:00:01.984Z,0.97
2022-08-23T06:02:28.344Z,0.81
2022-08-23T06:04:57.409Z,0.95
2022-08-23T06:07:24.002Z,0.98
2022-08-23T06:09:50.352Z,0.97
2022-08-23T06:12:16.754Z,1.11
2022-08-23T06:14:43.097Z,1.04
2022-08-23T06:17:09.440Z,0.91
2022-08-23T06:19:35.829Z,1.08
2022-08-23T06:22:02.190Z,0.93
2022-08-23T06:24:28.584Z,0.93
2022-08-23T06:26:54.922Z,1.04
2022-08-23T06:29:21.302Z,0.97
2022-08-23T06:31:47.696Z,1.05
2022-08-23T06:34:14.050Z,0.95
2022-08-23T06:36:40.408Z,1.06
2022-08-23T06:39:06.758Z,1.15
2022-08-23T06:41:33.110Z,1.05
2022-08-23T06:43:59.471Z,1.04
2022-08-23T06:46:25.856Z,1.03
2022-08-23T06:48:55.584Z,1.03
2022-08-23T06:51:21.963Z,1.12
2022-08-23T06:53:48.318Z,1.01
2022-08-23T06:56:16.265Z,0.89
2022-08-23T06:58:42.626Z,1.09
2022-08-23T07:01:23.282Z,1.00
2022-08-23T07:03:55.300Z,0.94
2022-08-23T07:06:21.651Z,1.08
2022-08-23T07:08:48.029Z,1.01
2022-08-23T07:11:14.402Z,0.99
2022-08-23T07:13:40.768Z,0.98
2022-08-23T07:16:07.243Z,1.07
2022-08-23T07:18:33.655Z,1.14
2022-08-23T07:21:00.019Z,0.97
2022-08-23T07:23:26.375Z,1.17
2022-08-23T07:25:52.749Z,1.04
2022-08-23T07:28:19.097Z,1.08
2022-08-23T07:30:45.607Z,1.08
2022-08-23T07:33:11.977Z,1.00
2022-08-23T07:35:40.335Z,1.15
2022-08-23T07:38:06.801Z,1.14
2022-08-23T07:40:38.158Z,1.14
2022-08-23T07:43:05.565Z,0.96
2022-08-23T07:45:32.398Z,1.10
2022-08-23T07:48:00.625Z,1.16
2022-08-23T07:50:30.347Z,1.21
2022-08-23T07:52:57.013Z,1.14
2022-08-23T07:55:23.368Z,1.20
2022-08-23T07:57:49.715Z,1.25
2022-08-23T08:00:16.119Z,1.27
2022-08-23T08:02:42.506Z,1.09
2022-08-23T08:05:08.883Z,1.10
2022-08-23T08:07:37.639Z,1.16
2022-08-23T08:10:04.163Z,1.16
2022-08-23T08:12:30.516Z,1.07
2022-08-23T08:14:56.902Z,1.20
2022-08-23T08:17:27.390Z,1.27
2022-08-23T08:19:54.068Z,1.03
2022-08-23T08:22:20.435Z,1.20
2022-08-23T08:24:46.786Z,1.25
2022-08-23T08:27:13.202Z,1.10
2022-08-23T08:29:39.577Z,1.11
2022-08-23T08:32:05.993Z,1.08
2022-08-23T08:34:32.382Z,1.28
2022-08-23T08:36:59.259Z,1.02
2022-08-23T08:39:26.505Z,1.12
2022-08-23T08:42:03.893Z,1.35
2022-08-23T08:44:31.280Z,1.17
2022-08-23T08:46:57.627Z,1.19
2022-08-23T08:49:23.994Z,1.20
2022-08-23T08:51:50.366Z,1.17
2022-08-23T08:54:16.709Z,1.23
2022-08-23T08:56:43.065Z,1.32
2022-08-23T08:59:09.413Z,1.15
2022-08-23T09:01:35.771Z,1.18
2022-08-23T09:04:02.153Z,1.40
2022-08-23T09:06:28.514Z,1.23
2022-08-23T09:08:54.879Z,1.18
2022-08-23T09:11:21.233Z,1.18
2022-08-23T09:13:47.576Z,1.21
2022-08-23T09:16:13.956Z,1.29
2022-08-23T09:18:40.341Z,1.19
2022-08-23T09:21:06.696Z,1.30
2022-08-23T09:23:33.063Z,1.47
2022-08-23T09:26:03.245Z,1.31
2022-08-23T09:28:30.243Z,1.20
2022-08-23T09:30:56.624Z,1.25
2022-08-23T09:33:23.022Z,1.50
2022-08-23T09:35:52.795Z,1.76
2022-08-23T09:38:19.159Z,1.30
2022-08-23T09:40:45.514Z,1.25
2022-08-23T09:43:11.878Z,1.26
2022-08-23T09:45:38.239Z,1.21
2022-08-23T09:48:04.610Z,1.22
2022-08-23T09:50:30.967Z,1.21
2022-08-23T09:52:57.395Z,1.34
2022-08-23T09:55:23.775Z,1.38
2022-08-23T09:57:50.129Z,1.23
2022-08-23T10:00:16.476Z,1.31
2022-08-23T10:02:42.825Z,1.29
2022-08-23T10:05:11.947Z,1.37
2022-08-23T10:07:42.766Z,1.30
2022-08-23T10:10:09.395Z,1.21
2022-08-23T10:12:35.738Z,1.20
2022-08-23T10:15:02.315Z,1.30
2022-08-23T10:17:29.023Z,1.39
2022-08-23T10:19:55.373Z,1.32
2022-08-23T10:22:21.732Z,1.19
2022-08-23T10:24:48.097Z,1.32
2022-08-23T10:27:14.446Z,1.30
2022-08-23T10:29:40.795Z,1.34
2022-08-23T10:32:07.161Z,1.41
2022-08-23T10:34:33.514Z,1.31
2022-08-23T10:36:59.878Z,1.22
2022-08-23T10:39:26.237Z,1.28
2022-08-23T10:41:52.598Z,1.46
2022-08-23T10:44:20.018Z,1.20
2022-08-23T10:46:46.434Z,1.24
2022-08-23T10:49:12.814Z,1.24
2022-08-23T10:51:40.511Z,1.37
2022-08-23T10:54:09.181Z,1.55
2022-08-23T10:56:35.567Z,1.33
2022-08-23T10:59:01.927Z,1.36
2022-08-23T11:01:28.302Z,1.33
2022-08-23T11:03:54.748Z,1.25
2022-08-23T11:06:21.110Z,1.36
2022-08-23T11:08:48.044Z,1.31
2022-08-23T11:11:14.543Z,1.16
2022-08-23T11:13:40.900Z,1.26
2022-08-23T11:16:07.311Z,1.38
2022-08-23T11:18:33.711Z,1.31
2022-08-23T11:21:00.072Z,1.35
2022-08-23T11:23:26.423Z,1.19
2022-08-23T11:25:52.933Z,1.38
2022-08-23T11:28:19.287Z,1.16
2022-08-23T11:30:45.666Z,1.25
2022-08-23T11:33:12.093Z,1.16
2022-08-23T11:35:43.336Z,1.21
2022-08-23T11:38:10.475Z,1.19
2022-08-23T11:40:36.835Z,1.40
2022-08-23T11:43:03.234Z,1.27
2022-08-23T11:45:29.655Z,1.34
2022-08-23T11:47:56.051Z,1.28
2022-08-23T11:50:22.446Z,1.39
2022-08-23T11:52:48.842Z,1.28
2022-08-23T11:55:15.206Z,1.23
2022-08-23T11:57:41.561Z,1.29
2022-08-23T12:00:07.918Z,1.45
2022-08-23T12:02:34.454Z,1.27
2022-08-23T12:05:00.969Z,1.21
2022-08-23T12:07:27.317Z,1.07
2022-08-23T12:09:53.683Z,1.35
2022-08-23T12:12:20.044Z,1.40
2022-08-23T12:14:46.423Z,1.18
2022-08-23T12:17:12.794Z,1.25
2022-08-23T12:19:40.495Z,1.26
2022-08-23T12:22:07.047Z,1.35
2022-08-23T12:24:33.407Z,1.21
2022-08-23T12:26:59.765Z,1.34
2022-08-23T12:29:26.117Z,1.27
2022-08-23T12:31:52.468Z,1.16
2022-08-23T12:34:18.943Z,1.30
2022-08-23T12:36:45.302Z,1.23
2022-08-23T12:39:11.658Z,1.20
2022-08-23T12:41:38.009Z,1.24
2022-08-23T12:44:04.358Z,1.37
2022-08-23T12:46:30.741Z,1.15
2022-08-23T12:48:57.129Z,1.23
2022-08-23T12:51:23.480Z,1.31
2022-08-23T12:53:49.837Z,1.36
2022-08-23T12:56:16.183Z,1.25
2022-08-23T12:58:42.530Z,1.16
2022-08-23T13:01:08.931Z,1.24
2022-08-23T13:03:35.361Z,1.33
2022-08-23T13:06:02.018Z,1.01
2022-08-23T13:08:34.449Z,1.28
2022-08-23T13:11:06.828Z,1.11
2022-08-23T13:13:34.308Z,1.30
2022-08-23T13:16:01.411Z,1.22
2022-08-23T13:18:27.852Z,1.25
2022-08-23T13:20:54.214Z,1.25
2022-08-23T13:23:20.600Z,1.13
2022-08-23T13:25:46.963Z,1.18
2022-08-23T13:28:13.307Z,1.08
2022-08-23T13:30:39.725Z,1.14
2022-08-23T13:33:07.771Z,1.25
2022-08-23T13:35:34.452Z,1.20
2022-08-23T13:38:00.821Z,1.17
2022-08-23T13:40:27.220Z,1.23
2022-08-23T13:42:53.639Z,1.09
2022-08-23T13:45:19.999Z,1.06
2022-08-23T13:47:46.352Z,1.10
2022-08-23T13:50:12.713Z,1.15
2022-08-23T13:53:02.764Z,1.10
2022-08-23T13:55:25.407Z,1.12
2022-08-23T13:57:51.762Z,1.08
2022-08-23T14:00:19.577Z,1.09
2022-08-23T14:02:46.234Z,1.12
2022-08-23T14:05:12.635Z,0.97
2022-08-23T14:07:39.010Z,1.10
2022-08-23T14:10:05.354Z,1.17
2022-08-23T14:12:31.693Z,1.18
2022-08-23T14:14:58.071Z,0.98
2022-08-23T14:17:24.469Z,1.08
2022-08-23T14:22:37.213Z,1.05
2022-08-23T14:25:03.578Z,0.99
2022-08-23T14:27:29.927Z,1.06
2022-08-23T14:29:56.286Z,1.06
2022-08-23T14:32:22.641Z,1.06
2022-08-23T14:34:48.991Z,1.16
2022-08-23T14:38:18.056Z,1.18
2022-08-23T14:40:01.721Z,1.00
2022-08-23T14:42:28.179Z,1.22
2022-08-23T14:44:54.532Z,1.10
2022-08-23T14:47:20.873Z,1.07
2022-08-23T14:49:49.863Z,1.05
2022-08-23T14:52:18.398Z,1.13
2022-08-23T14:54:44.748Z,1.25
2022-08-23T14:57:11.098Z,1.08
2022-08-23T14:59:37.440Z,1.21
2022-08-23T15:02:03.783Z,1.01
2022-08-23T15:04:34.406Z,1.03
2022-08-23T15:07:17.292Z,1.07
2022-08-23T15:09:44.805Z,1.13
2022-08-23T15:14:57.508Z,1.06
2022-08-23T15:17:28.775Z,1.03
2022-08-23T15:19:57.455Z,1.04
2022-08-23T15:22:23.877Z,1.13
2022-08-23T15:24:52.354Z,1.21
2022-08-23T15:27:18.702Z,0.97
2022-08-23T15:29:45.050Z,1.13
2022-08-23T15:32:12.621Z,1.07
2022-08-23T15:34:40.204Z,1.02
2022-08-23T15:37:12.083Z,1.06
2022-08-23T15:39:38.429Z,1.15
2022-08-23T15:42:04.784Z,1.05
2022-08-23T15:44:31.132Z,1.09
2022-08-23T15:46:57.492Z,1.04
2022-08-23T15:49:24.494Z,1.27
2022-08-23T15:51:50.843Z,1.08
2022-08-23T15:54:17.192Z,1.03
2022-08-23T15:56:43.577Z,1.09
2022-08-23T15:59:09.914Z,1.12
2022-08-23T16:01:36.345Z,1.07
2022-08-23T16:04:02.744Z,1.03
2022-08-23T16:06:32.135Z,1.14
2022-08-23T16:09:00.810Z,1.20
2022-08-23T16:11:27.155Z,0.97
2022-08-23T16:13:55.138Z,1.06
2022-08-23T16:16:22.146Z,1.09
2022-08-23T16:18:48.545Z,0.97
2022-08-23T16:21:14.910Z,1.04
2022-08-23T16:23:41.252Z,1.04
2022-08-23T16:26:07.603Z,1.14
2022-08-23T16:28:33.950Z,1.22
2022-08-23T16:31:00.384Z,1.12
2022-08-23T16:33:26.766Z,1.02
2022-08-23T16:35:53.108Z,1.03
2022-08-23T16:38:19.460Z,0.96
2022-08-23T16:40:45.823Z,1.07
2022-08-23T16:43:12.167Z,1.11
2022-08-23T16:45:38.574Z,0.99
2022-08-23T16:48:05.041Z,1.18
2022-08-23T16:50:31.421Z,1.03
2022-08-23T16:52:57.807Z,1.04
2022-08-23T16:55:24.191Z,1.15
2022-08-23T16:57:50.540Z,1.19
2022-08-23T17:00:16.885Z,1.06
2022-08-23T17:02:43.257Z,1.09
2022-08-23T17:05:09.628Z,1.20
2022-08-23T17:07:35.979Z,1.03
2022-08-23T17:10:02.351Z,0.92
2022-08-23T17:12:28.713Z,1.16
2022-08-23T17:14:55.077Z,1.15
2022-08-23T17:17:21.432Z,1.07
2022-08-23T17:19:47.778Z,0.88
2022-08-23T17:22:14.123Z,1.12
2022-08-23T17:24:40.475Z,1.07
2022-08-23T17:27:06.816Z,1.23
2022-08-23T17:29:37.265Z,1.01
2022-08-23T17:32:04.116Z,1.08
2022-08-23T17:34:30.516Z,1.10
2022-08-23T17:36:56.875Z,1.02
2022-08-23T17:39:23.220Z,1.07
2022-08-23T17:41:49.553Z,0.93
2022-08-23T17:44:15.896Z,1.08
2022-08-23T17:46:42.245Z,1.07
2022-08-23T17:49:08.699Z,1.13
2022-08-23T17:51:35.065Z,1.22
2022-08-23T17:54:01.411Z,1.11
2022-08-23T17:56:27.774Z,1.00
2022-08-23T17:58:54.119Z,1.11
2022-08-23T18:01:21.074Z,1.13
2022-08-23T18:03:47.505Z,1.08
2022-08-23T18:06:16.687Z,0.92
2022-08-23T18:08:43.752Z,0.93
2022-08-23T18:11:10.097Z,1.02
2022-08-23T18:13:36.443Z,1.14
2022-08-23T18:16:02.840Z,0.97
2022-08-23T18:18:29.214Z,1.03
2022-08-23T18:20:55.581Z,1.07
2022-08-23T18:23:21.927Z,0.99
2022-08-23T18:25:48.297Z,1.40
2022-08-23T18:28:14.687Z,0.97
2022-08-23T18:30:41.031Z,1.00
2022-08-23T18:33:07.380Z,1.08
2022-08-23T18:35:38.903Z,1.03
2022-08-23T18:38:05.253Z,1.16
2022-08-23T18:40:31.665Z,1.16
2022-08-23T18:42:58.124Z,1.12
2022-08-23T18:45:24.546Z,1.00
2022-08-23T18:47:50.940Z,1.15
2022-08-23T18:50:17.299Z,0.94
2022-08-23T18:52:43.657Z,0.84
2022-08-23T18:55:10.017Z,0.98
2022-08-23T18:57:36.366Z,1.07
2022-08-23T19:00:02.711Z,1.14
2022-08-23T19:02:29.157Z,1.21
2022-08-23T19:04:55.569Z,0.90
2022-08-23T19:07:21.918Z,0.96
2022-08-23T19:09:48.263Z,1.16
2022-08-23T19:12:14.613Z,1.12
2022-08-23T19:14:40.961Z,1.02
2022-08-23T19:17:07.338Z,1.07
2022-08-23T19:19:33.698Z,0.94
2022-08-23T19:22:00.061Z,1.12
2022-08-23T19:24:26.402Z,1.09
2022-08-23T19:26:52.750Z,0.98
2022-08-23T19:29:19.107Z,1.09
2022-08-23T19:31:45.549Z,1.12
2022-08-23T19:34:11.918Z,1.06
2022-08-23T19:36:47.546Z,1.11
2022-08-23T19:39:16.786Z,1.16
2022-08-23T19:41:43.146Z,1.20
2022-08-23T19:44:09.500Z,0.99
2022-08-23T19:46:35.857Z,0.99
2022-08-23T19:49:02.203Z,1.10
2022-08-23T19:51:33.272Z,1.05
2022-08-23T19:53:59.629Z,1.00
2022-08-23T19:56:25.979Z,0.95
2022-08-23T19:58:53.566Z,1.00
2022-08-23T20:01:19.960Z,0.96
2022-08-23T20:03:46.323Z,1.04
2022-08-23T20:06:15.191Z,1.06
2022-08-23T20:08:45.431Z,1.10
2022-08-23T20:11:11.797Z,1.04
2022-08-23T20:13:38.137Z,0.94
2022-08-23T20:16:04.545Z,0.93
2022-08-23T20:18:30.933Z,1.08
2022-08-23T20:20:57.281Z,1.08
2022-08-23T20:23:23.626Z,1.05
2022-08-23T20:25:49.975Z,1.14
2022-08-23T20:28:16.317Z,1.13
2022-08-23T20:30:42.670Z,1.05
2022-08-23T20:33:09.031Z,1.19
2022-08-23T20:35:35.376Z,1.05
2022-08-23T20:38:01.858Z,0.95
2022-08-23T20:40:28.327Z,0.92
2022-08-23T20:42:54.707Z,1.05
2022-08-23T20:45:21.073Z,1.01
2022-08-23T20:47:47.434Z,1.02
2022-08-23T20:50:13.815Z,1.05
2022-08-23T20:52:40.180Z,1.03
2022-08-23T20:55:10.553Z,1.09
2022-08-23T20:57:38.384Z,1.11
2022-08-23T21:00:05.139Z,1.02
2022-08-23T21:02:31.538Z,1.03
2022-08-23T21:04:57.961Z,1.00
2022-08-23T21:07:24.292Z,0.91
2022-08-23T21:09:54.258Z,1.05
2022-08-23T21:12:20.597Z,0.94
2022-08-23T21:14:46.946Z,0.86
2022-08-23T21:17:13.323Z,1.08
2022-08-23T21:19:39.675Z,0.87
2022-08-23T21:22:06.039Z,0.89
2022-08-23T21:24:32.384Z,0.91
2022-08-23T21:26:58.726Z,0.95
2022-08-23T21:29:25.065Z,0.98
2022-08-23T21:31:52.187Z,1.08
2022-08-23T21:34:18.547Z,1.08
2022-08-23T21:36:44.904Z,1.05
2022-08-23T21:39:11.258Z,1.19
2022-08-23T21:41:37.606Z,1.16
2022-08-23T21:44:03.946Z,0.98
2022-08-23T21:46:30.371Z,1.06
2022-08-23T21:48:56.759Z,1.04
2022-08-23T21:51:23.106Z,1.02
2022-08-23T21:53:49.436Z,1.08
2022-08-23T21:56:15.791Z,1.02
2022-08-23T21:58:42.188Z,0.97
2022-08-23T22:01:08.553Z,1.03
2022-08-23T22:03:35.191Z,0.91
2022-08-23T22:06:01.554Z,1.17
2022-08-23T22:08:27.929Z,1.12
2022-08-23T22:10:58.026Z,0.98
2022-08-23T22:13:24.683Z,1.06
2022-08-23T22:15:51.083Z,1.01
2022-08-23T22:18:17.470Z,1.07
2022-08-23T22:20:43.806Z,0.98
2022-08-23T22:23:10.153Z,1.04
2022-08-23T22:25:36.498Z,0.95
2022-08-23T22:28:02.782Z,0.97
2022-08-23T22:30:29.076Z,0.79
2022-08-23T22:32:55.363Z,1.01
2022-08-23T22:35:21.705Z,0.99
2022-08-23T22:38:10.214Z,1.04
2022-08-23T22:40:34.321Z,0.96
2022-08-23T22:43:00.622Z,0.89
2022-08-23T22:45:26.926Z,1.07
2022-08-23T22:47:53.231Z,0.96
2022-08-23T22:50:19.576Z,1.03
2022-08-23T22:52:45.922Z,1.12
2022-08-23T22:55:12.266Z,0.95
2022-08-23T22:57:38.616Z,0.95
2022-08-23T23:00:04.974Z,0.90
2022-08-23T23:02:31.551Z,0.94
2022-08-23T23:04:57.909Z,1.05
2022-08-23T23:07:24.275Z,1.15
2022-08-23T23:09:50.635Z,1.26
2022-08-23T23:12:16.981Z,0.98
2022-08-23T23:14:43.325Z,1.00
2022-08-23T23:17:09.715Z,0.91
2022-08-23T23:19:36.109Z,0.87
2022-08-23T23:22:02.476Z,0.96
2022-08-23T23:24:28.833Z,0.91
2022-08-23T23:26:55.229Z,1.03
2022-08-23T23:29:21.602Z,1.16
2022-08-23T23:31:47.953Z,0.96
2022-08-23T23:34:14.308Z,1.01
2022-08-23T23:36:40.647Z,1.09
2022-08-23T23:39:06.993Z,1.08
2022-08-23T23:41:33.330Z,0.95
2022-08-23T23:43:59.683Z,0.93
2022-08-23T23:46:26.129Z,1.01
2022-08-23T23:48:52.554Z,1.07
2022-08-23T23:51:18.898Z,1.04
2022-08-23T23:53:45.244Z,0.99
2022-08-23T23:56:11.595Z,0.95
2022-08-23T23:58:37.963Z,1.05
